createdAt,value
2022-12-31T00:06:59.944Z,75.86
2022-12-31T00:22:17.204Z,75.71
2022-12-31T00:37:19.954Z,75.71
2022-12-31T00:52:22.466Z,75.75
2022-12-31T01:07:25.264Z,75.94
2022-12-31T01:22:27.937Z,75.77
2022-12-31T01:37:30.362Z,75.56
2022-12-31T01:52:40.828Z,75.26
2022-12-31T02:07:44.798Z,75.57
2022-12-31T02:23:29.084Z,75.52
2022-12-31T02:38:41.351Z,75.03
2022-12-31T02:53:57.905Z,75.40
2022-12-31T03:09:14.219Z,75.56
2022-12-31T03:24:35.283Z,75.79
2022-12-31T03:39:37.806Z,75.87
2022-12-31T03:54:54.830Z,75.88
2022-12-31T04:09:57.816Z,75.72
2022-12-31T04:25:15.180Z,75.72
2022-12-31T04:40:17.793Z,75.59
2022-12-31T04:55:20.120Z,75.89
2022-12-31T05:10:22.946Z,76.27
2022-12-31T05:25:25.597Z,76.56
2022-12-31T05:40:28.903Z,76.62
2022-12-31T05:55:31.362Z,76.70
2022-12-31T06:10:33.978Z,77.06
2022-12-31T06:25:39.594Z,77.09
2022-12-31T06:40:42.335Z,77.45
2022-12-31T06:55:45.223Z,77.18
2022-12-31T07:11:13.638Z,77.43
2022-12-31T07:26:43.981Z,77.56
2022-12-31T07:42:02.611Z,77.46
2022-12-31T07:57:05.654Z,77.77
2022-12-31T08:12:09.151Z,77.84
2022-12-31T08:28:14.024Z,78.45
2022-12-31T08:43:41.297Z,79.26
2022-12-31T08:59:12.130Z,79.62
2022-12-31T09:14:35.187Z,79.05
2022-12-31T09:30:07.157Z,79.00
2022-12-31T09:46:12.450Z,78.23
2022-12-31T10:01:56.157Z,77.60
2022-12-31T10:17:53.606Z,77.54
2022-12-31T10:33:33.264Z,77.38
2022-12-31T10:49:39.329Z,76.28
2022-12-31T11:05:11.356Z,75.53
2022-12-31T11:20:59.817Z,73.78
2022-12-31T11:36:40.358Z,73.24
2022-12-31T11:52:11.667Z,71.73
2022-12-31T12:07:16.157Z,71.67
2022-12-31T12:22:25.325Z,71.57
2022-12-31T12:37:34.827Z,71.09
2022-12-31T12:53:17.834Z,70.74
2022-12-31T13:08:59.906Z,71.20
2022-12-31T13:24:31.349Z,71.60
2022-12-31T13:40:01.392Z,71.58
2022-12-31T13:55:30.333Z,70.97
2022-12-31T14:10:54.791Z,70.36
2022-12-31T14:26:06.542Z,70.28
2022-12-31T14:41:22.381Z,69.96
2022-12-31T14:56:43.216Z,69.81
2022-12-31T15:12:07.599Z,70.09
2022-12-31T15:27:38.272Z,70.03
2022-12-31T15:42:54.960Z,69.88
2022-12-31T15:58:23.287Z,69.64
2022-12-31T16:13:29.663Z,69.56
2022-12-31T16:28:51.840Z,69.53
2022-12-31T16:43:56.307Z,69.66
2022-12-31T16:59:55.953Z,69.89
2022-12-31T17:15:05.391Z,70.21
2022-12-31T17:30:36.021Z,70.20
2022-12-31T17:45:49.313Z,70.38
2022-12-31T18:00:54.031Z,70.51
2022-12-31T18:16:11.155Z,70.55
2022-12-31T18:31:27.660Z,70.70
2022-12-31T18:46:44.789Z,70.57
2022-12-31T19:02:01.939Z,70.40
2022-12-31T19:17:21.119Z,70.34
2022-12-31T19:32:23.801Z,70.32
2022-12-31T19:47:26.272Z,70.36
2022-12-31T20:02:29.236Z,70.56
2022-12-31T20:17:32.188Z,70.58
2022-12-31T20:32:36.268Z,70.35
2022-12-31T20:47:38.961Z,69.99
2022-12-31T21:02:43.515Z,70.01
2022-12-31T21:17:49.535Z,70.33
